Time;durP1;ratioP1;P1;durP2;ratioP2;P2;SDS_P1;SDS_P2;PMS_P1;PMS_P2;Temp;Humidity;BMP_temperature;BMP_pressure;BME280_temperature;BME280_humidity;BME280_pressure;Samples;Min_cycle;Max_cycle;Signal;HPM_P1;HPM_P2
2024/04/04 00:02:57;;;;;;;;;5.00;5.00;;;;;;;;6490293;46;8963;-58
2024/04/04 00:08:59;;;;;;;;;5.33;4.00;;;;;;;;6490426;46;8871;-59
2024/04/04 00:15:00;;;;;;;;;3.33;3.33;;;;;;;;6490525;39;9061;-55
2024/04/04 00:21:02;;;;;;;;;4.00;4.00;;;;;;;;6490269;47;8937;-58
2024/04/04 00:27:03;;;;;;;;;5.00;5.00;;;;;;;;6489801;47;9143;-57
2024/04/04 00:33:05;;;;;;;;;8.00;5.33;;;;;;;;6489633;47;8862;-58
2024/04/04 00:39:06;;;;;;;;;3.00;3.00;;;;;;;;6489022;47;8992;-57
2024/04/04 00:45:08;;;;;;;;;3.00;3.00;;;;;;;;6489855;47;8934;-58
2024/04/04 00:51:10;;;;;;;;;3.00;3.00;;;;;;;;6536200;36;8933;-57
2024/04/04 00:57:11;;;;;;;;;4.00;3.00;;;;;;;;6491046;39;8854;-58
2024/04/04 01:03:14;;;;;;;;;5.00;4.00;;;;;;;;6491834;46;8905;-57
2024/04/04 01:09:16;;;;;;;;;3.00;3.00;;;;;;;;6492290;39;9037;-58
2024/04/04 01:15:17;;;;;;;;;3.00;3.00;;;;;;;;6491615;46;8893;-57
2024/04/04 01:21:19;;;;;;;;;3.67;3.67;;;;;;;;6491726;46;8874;-58
2024/04/04 01:27:20;;;;;;;;;4.33;4.33;;;;;;;;6492227;39;8935;-58
2024/04/04 01:33:21;;;;;;;;;4.33;4.00;;;;;;;;6491230;46;8878;-59
2024/04/04 01:39:26;;;;;;;;;6.33;4.67;;;;;;;;6491382;46;8834;-57
2024/04/04 01:45:27;;;;;;;;;2.33;2.33;;;;;;;;6491654;46;9085;-58
2024/04/04 01:51:28;;;;;;;;;6.67;3.67;;;;;;;;6491379;46;8873;-59
2024/04/04 01:57:30;;;;;;;;;3.00;3.00;;;;;;;;6492314;39;9687;-58
2024/04/04 02:03:31;;;;;;;;;3.00;3.00;;;;;;;;6491658;39;9023;-59
2024/04/04 02:09:32;;;;;;;;;8.00;6.67;;;;;;;;6490824;46;8863;-58
2024/04/04 02:15:40;;;;;;;;;3.33;3.33;;;;;;;;6490901;39;8845;-58
2024/04/04 02:21:41;;;;;;;;;3.00;3.00;;;;;;;;6311123;31;10000216;-58
2024/04/04 02:27:43;;;;;;;;;5.00;5.00;;;;;;;;6491373;31;9615;-57
2024/04/04 02:33:44;;;;;;;;;5.67;5.67;;;;;;;;6489916;46;9001;-57
2024/04/04 02:39:45;;;;;;;;;7.00;5.67;;;;;;;;6491664;39;8893;-57
2024/04/04 02:45:48;;;;;;;;;3.67;3.67;;;;;;;;6491747;31;8910;-58
2024/04/04 02:51:48;;;;;;;;;7.67;5.00;;;;;;;;6491030;39;9055;-58
2024/04/04 02:57:52;;;;;;;;;5.00;5.00;;;;;;;;6491435;31;8904;-57
2024/04/04 03:03:53;;;;;;;;;11.67;7.67;;;;;;;;6491382;31;9149;-57
2024/04/04 03:09:56;;;;;;;;;8.00;8.00;;;;;;;;6491760;31;8922;-58
2024/04/04 03:15:58;;;;;;;;;10.00;8.00;;;;;;;;6491090;39;8976;-58
2024/04/04 03:21:59;;;;;;;;;10.00;10.00;;;;;;;;6490413;39;9485;-58
2024/04/04 03:28:00;;;;;;;;;11.00;9.00;;;;;;;;6490347;46;8925;-57
2024/04/04 03:34:01;;;;;;;;;6.33;6.33;;;;;;;;6491551;31;8940;-57
2024/04/04 03:40:04;;;;;;;;;8.00;6.00;;;;;;;;6490938;46;8887;-57
2024/04/04 03:46:06;;;;;;;;;7.67;7.67;;;;;;;;6490706;46;8906;-58
2024/04/04 03:52:07;;;;;;;;;8.33;7.33;;;;;;;;6490581;46;8877;-58
2024/04/04 03:58:10;;;;;;;;;11.33;8.67;;;;;;;;6490522;46;8843;-59
2024/04/04 04:04:11;;;;;;;;;9.67;9.67;;;;;;;;6473554;39;9639;-58
2024/04/04 04:10:13;;;;;;;;;8.00;8.00;;;;;;;;6509747;36;8899;-58
2024/04/04 04:16:14;;;;;;;;;9.00;7.00;;;;;;;;6492865;39;8920;-58
2024/04/04 04:22:17;;;;;;;;;4.33;4.33;;;;;;;;6492193;31;8935;-57
2024/04/04 04:28:17;;;;;;;;;7.33;7.33;;;;;;;;6492335;39;9047;-57
2024/04/04 04:34:19;;;;;;;;;5.67;5.67;;;;;;;;6489708;39;8916;-58
2024/04/04 04:40:22;;;;;;;;;9.00;8.67;;;;;;;;6491480;39;8920;-57
2024/04/04 04:46:23;;;;;;;;;15.00;13.50;;;;;;;;6491971;47;9145;-56
2024/04/04 04:52:24;;;;;;;;;9.00;9.00;;;;;;;;6490276;47;8974;-57
2024/04/04 04:58:25;;;;;;;;;11.00;7.00;;;;;;;;6490729;39;9624;-58
2024/04/04 05:04:26;;;;;;;;;9.00;9.00;;;;;;;;6490950;39;9063;-60
2024/04/04 05:10:29;;;;;;;;;12.00;10.33;;;;;;;;6489196;47;8960;-57
2024/04/04 05:16:31;;;;;;;;;10.67;10.67;;;;;;;;6488456;47;8940;-56
2024/04/04 05:22:32;;;;;;;;;11.00;9.33;;;;;;;;6488909;47;8935;-56
2024/04/04 05:28:34;;;;;;;;;13.67;11.00;;;;;;;;6489919;39;8929;-57
2024/04/04 05:34:36;;;;;;;;;16.33;13.67;;;;;;;;6489788;47;9117;-58
2024/04/04 05:40:37;;;;;;;;;15.00;13.33;;;;;;;;6490726;46;9046;-58
2024/04/04 05:46:39;;;;;;;;;15.67;14.00;;;;;;;;6493668;39;9037;-58
2024/04/04 05:52:40;;;;;;;;;12.00;10.67;;;;;;;;6493760;46;9032;-57
2024/04/04 05:58:41;;;;;;;;;17.33;12.67;;;;;;;;6493293;46;9067;-57
2024/04/04 06:04:44;;;;;;;;;18.00;14.67;;;;;;;;6493941;39;9495;-59
2024/04/04 06:10:45;;;;;;;;;12.00;12.00;;;;;;;;6491707;39;8972;-58
2024/04/04 06:16:49;;;;;;;;;14.00;11.00;;;;;;;;6492859;39;8978;-58
2024/04/04 06:22:50;;;;;;;;;10.33;10.33;;;;;;;;6493132;46;8984;-58
2024/04/04 06:28:51;;;;;;;;;11.00;10.33;;;;;;;;6510283;36;8932;-57
2024/04/04 06:34:52;;;;;;;;;11.00;11.00;;;;;;;;6495354;31;8869;-56
2024/04/04 06:40:53;;;;;;;;;12.33;10.00;;;;;;;;6491849;46;8872;-58
2024/04/04 06:46:54;;;;;;;;;11.00;10.00;;;;;;;;6492924;46;8946;-58
2024/04/04 06:52:56;;;;;;;;;9.67;9.67;;;;;;;;6492472;47;8931;-61
2024/04/04 06:58:59;;;;;;;;;9.33;9.33;;;;;;;;6492556;39;8847;-59
2024/04/04 07:05:00;;;;;;;;;11.00;10.33;;;;;;;;6493105;46;8887;-58
2024/04/04 07:11:05;;;;;;;;;12.00;8.33;;;;;;;;6492413;46;8931;-58
2024/04/04 07:17:06;;;;;;;;;12.67;12.67;;;;;;;;6493057;39;9569;-58
2024/04/04 07:23:07;;;;;;;;;8.50;8.50;;;;;;;;6492748;39;8962;-59
2024/04/04 07:29:10;;;;;;;;;9.75;8.00;;;;;;;;6492457;39;9049;-60
2024/04/04 07:35:15;;;;;;;;;9.33;8.33;;;;;;;;6493463;39;8952;-58
2024/04/04 07:41:17;;;;;;;;;10.00;10.00;;;;;;;;6491617;39;9739;-59
2024/04/04 07:47:18;;;;;;;;;10.33;10.33;;;;;;;;6492345;39;9163;-58
2024/04/04 07:53:19;;;;;;;;;9.50;9.50;;;;;;;;6492730;39;9034;-58
2024/04/04 07:59:22;;;;;;;;;9.33;9.33;;;;;;;;6491414;39;9402;-58
2024/04/04 08:05:24;;;;;;;;;9.75;9.00;;;;;;;;6491103;39;9043;-59
2024/04/04 08:11:26;;;;;;;;;13.67;11.67;;;;;;;;6492444;39;9036;-59
2024/04/04 08:17:28;;;;;;;;;10.75;10.75;;;;;;;;6491947;39;8885;-58
2024/04/04 08:23:30;;;;;;;;;12.75;12.25;;;;;;;;6492247;39;8917;-59
2024/04/04 08:29:34;;;;;;;;;11.50;11.25;;;;;;;;6488990;31;9089;-59
2024/04/04 08:35:38;;;;;;;;;12.75;11.25;;;;;;;;6490873;39;8863;-59
2024/04/04 08:41:44;;;;;;;;;14.50;11.00;;;;;;;;6491974;39;9545;-58
2024/04/04 08:47:46;;;;;;;;;12.25;11.25;;;;;;;;6493532;31;8902;-60
2024/04/04 08:53:48;;;;;;;;;11.50;9.25;;;;;;;;6492443;31;9031;-58
2024/04/04 08:59:58;;;;;;;;;10.50;10.50;;;;;;;;6492164;39;8942;-59
2024/04/04 09:06:03;;;;;;;;;10.00;7.25;;;;;;;;6490608;47;8896;-59
2024/04/04 09:12:11;;;;;;;;;15.00;14.75;;;;;;;;6491271;39;8946;-60
2024/04/04 09:18:12;;;;;;;;;24.33;22.00;;;;;;;;6492752;39;8934;-59
2024/04/04 09:24:16;;;;;;;;;11.50;10.50;;;;;;;;6492753;39;8970;-60
2024/04/04 09:30:24;;;;;;;;;11.00;9.75;;;;;;;;6488622;46;8966;-60
2024/04/04 09:36:29;;;;;;;;;9.00;9.00;;;;;;;;6490154;31;8917;-60
2024/04/04 09:42:33;;;;;;;;;13.00;9.25;;;;;;;;6492453;39;9548;-58
2024/04/04 09:48:36;;;;;;;;;7.75;7.00;;;;;;;;6491657;39;8977;-58
2024/04/04 09:54:40;;;;;;;;;8.75;7.00;;;;;;;;6492208;39;8985;-60
2024/04/04 10:00:42;;;;;;;;;8.50;6.25;;;;;;;;6492549;39;8961;-59
2024/04/04 10:06:45;;;;;;;;;13.67;12.33;;;;;;;;6491511;31;8990;-60
2024/04/04 10:12:54;;;;;;;;;6.00;5.25;;;;;;;;6490719;39;9018;-59
2024/04/04 10:18:56;;;;;;;;;6.25;6.25;;;;;;;;6491054;39;8997;-60
2024/04/04 10:25:03;;;;;;;;;5.00;5.00;;;;;;;;6490344;46;9102;-59
2024/04/04 10:31:10;;;;;;;;;5.00;5.00;;;;;;;;6491266;46;8956;-60
2024/04/04 10:37:17;;;;;;;;;9.50;6.50;;;;;;;;6490548;46;8922;-59
2024/04/04 10:43:18;;;;;;;;;3.75;3.00;;;;;;;;6490994;39;8919;-59
2024/04/04 10:49:27;;;;;;;;;4.25;4.25;;;;;;;;6490932;39;9026;-59
2024/04/04 10:55:31;;;;;;;;;3.25;3.25;;;;;;;;6489294;46;9011;-59
2024/04/04 11:01:34;;;;;;;;;4.25;4.25;;;;;;;;6489409;31;9556;-59
2024/04/04 11:07:38;;;;;;;;;5.50;5.50;;;;;;;;6490909;46;8954;-58
2024/04/04 11:13:40;;;;;;;;;8.50;8.00;;;;;;;;6491068;46;9056;-58
2024/04/04 11:19:41;;;;;;;;;7.25;7.25;;;;;;;;6491434;46;9063;-57
2024/04/04 11:25:45;;;;;;;;;9.00;9.00;;;;;;;;6491630;46;8879;-58
2024/04/04 11:31:53;;;;;;;;;10.00;9.00;;;;;;;;6492498;39;9632;-59
2024/04/04 11:37:53;;;;;;;;;9.50;8.25;;;;;;;;6491365;39;8887;-59
2024/04/04 11:43:56;;;;;;;;;9.50;8.50;;;;;;;;6490920;39;9022;-59
2024/04/04 11:50:03;;;;;;;;;6.50;6.50;;;;;;;;6490270;39;8955;-59
2024/04/04 11:56:10;;;;;;;;;6.00;6.00;;;;;;;;6490101;46;8958;-58
2024/04/04 12:02:11;;;;;;;;;9.00;7.25;;;;;;;;6490276;31;9189;-59
2024/04/04 12:08:12;;;;;;;;;13.00;11.00;;;;;;;;6489148;46;8935;-59
2024/04/04 12:14:13;;;;;;;;;5.75;5.75;;;;;;;;6489082;31;9026;-59
2024/04/04 12:20:19;;;;;;;;;8.50;7.00;;;;;;;;6490029;31;9009;-59
2024/04/04 12:26:20;;;;;;;;;9.75;8.00;;;;;;;;6490301;39;8961;-60
2024/04/04 12:32:39;;;;;;;;;9.50;8.00;;;;;;;;6322908;36;10008978;-58
2024/04/04 12:38:40;;;;;;;;;8.50;8.00;;;;;;;;5047425;39;20001796;-59
2024/04/04 12:44:45;;;;;;;;;10.00;8.50;;;;;;;;6490328;39;9004;-59
2024/04/04 12:50:47;;;;;;;;;9.25;9.25;;;;;;;;6491006;39;9554;-59
2024/04/04 12:56:48;;;;;;;;;45.00;35.67;;;;;;;;6492157;46;8894;-59
2024/04/04 13:02:49;;;;;;;;;11.75;9.75;;;;;;;;6491698;39;8983;-59
2024/04/04 13:08:51;;;;;;;;;14.25;12.25;;;;;;;;6491335;39;8985;-60
2024/04/04 13:14:53;;;;;;;;;10.00;10.00;;;;;;;;6490918;39;8988;-59
2024/04/04 13:20:54;;;;;;;;;8.00;6.00;;;;;;;;6487716;39;8965;-59
2024/04/04 13:26:56;;;;;;;;;5.33;5.33;;;;;;;;6491008;46;8999;-58
2024/04/04 13:32:58;;;;;;;;;6.75;6.00;;;;;;;;6492039;31;9032;-59
2024/04/04 13:38:59;;;;;;;;;12.00;11.50;;;;;;;;6491931;31;9104;-57
2024/04/04 13:45:01;;;;;;;;;4.50;4.00;;;;;;;;6492085;39;9018;-58
2024/04/04 13:51:03;;;;;;;;;4.50;4.00;;;;;;;;6492433;39;8954;-57
2024/04/04 13:57:06;;;;;;;;;2.00;2.00;;;;;;;;6491847;46;9077;-59
2024/04/04 14:03:07;;;;;;;;;1.75;1.00;;;;;;;;6491922;39;8943;-58
2024/04/04 14:09:09;;;;;;;;;2.75;2.75;;;;;;;;6492244;39;9973;-59
2024/04/04 14:15:10;;;;;;;;;2.75;2.75;;;;;;;;6491896;39;8934;-59
2024/04/04 14:21:11;;;;;;;;;2.50;2.50;;;;;;;;6491656;39;9033;-59
2024/04/04 14:27:12;;;;;;;;;3.50;3.50;;;;;;;;6491861;31;9071;-61
2024/04/04 14:33:13;;;;;;;;;2.50;2.50;;;;;;;;6492224;39;9042;-59
2024/04/04 14:39:16;;;;;;;;;2.75;2.75;;;;;;;;6492353;39;8967;-59
2024/04/04 14:45:18;;;;;;;;;3.00;3.00;;;;;;;;6491789;39;9006;-59
2024/04/04 14:51:19;;;;;;;;;16.00;14.25;;;;;;;;6492166;31;8935;-59
2024/04/04 14:57:23;;;;;;;;;6.25;6.25;;;;;;;;6491975;31;8970;-60
2024/04/04 15:03:25;;;;;;;;;4.50;4.50;;;;;;;;6491410;39;8964;-60
2024/04/04 15:09:27;;;;;;;;;3.25;3.25;;;;;;;;6491821;39;8982;-59
2024/04/04 15:15:29;;;;;;;;;4.00;4.00;;;;;;;;6491321;46;8904;-59
2024/04/04 15:21:29;;;;;;;;;4.50;3.00;;;;;;;;6490035;46;8920;-59
2024/04/04 15:27:32;;;;;;;;;3.50;3.50;;;;;;;;6491552;46;8963;-60
2024/04/04 15:33:33;;;;;;;;;2.75;2.00;;;;;;;;6491686;39;8921;-60
2024/04/04 15:39:34;;;;;;;;;4.00;2.50;;;;;;;;6491302;39;8851;-59
2024/04/04 15:45:37;;;;;;;;;2.50;2.50;;;;;;;;6491278;46;10039;-57
2024/04/04 15:51:41;;;;;;;;;6.00;4.50;;;;;;;;6491978;39;9514;-59
2024/04/04 15:57:42;;;;;;;;;6.50;6.50;;;;;;;;6491146;46;8916;-58
2024/04/04 16:03:43;;;;;;;;;6.33;6.00;;;;;;;;6490900;46;9043;-59
2024/04/04 16:09:46;;;;;;;;;6.33;6.33;;;;;;;;6510534;31;8901;-59
2024/04/04 16:15:48;;;;;;;;;5.00;5.00;;;;;;;;6490317;46;8991;-59
2024/04/04 16:21:51;;;;;;;;;5.00;5.00;;;;;;;;6491479;31;9021;-59
2024/04/04 16:27:53;;;;;;;;;12.00;9.33;;;;;;;;6490230;46;9088;-59
2024/04/04 16:33:55;;;;;;;;;7.00;7.00;;;;;;;;6490462;39;8950;-59
2024/04/04 16:39:56;;;;;;;;;11.50;11.00;;;;;;;;6491411;39;8909;-58
2024/04/04 16:45:57;;;;;;;;;10.33;9.33;;;;;;;;6489983;47;8910;-59
2024/04/04 16:51:59;;;;;;;;;16.33;16.33;;;;;;;;6490397;47;8925;-57
2024/04/04 16:58:01;;;;;;;;;13.00;12.67;;;;;;;;6490432;31;8899;-58
2024/04/04 17:04:04;;;;;;;;;15.00;15.00;;;;;;;;6488553;46;8993;-58
2024/04/04 17:10:07;;;;;;;;;12.67;11.67;;;;;;;;6490975;39;9546;-60
2024/04/04 17:16:10;;;;;;;;;13.00;13.00;;;;;;;;6490138;31;8822;-59
2024/04/04 17:22:11;;;;;;;;;13.00;12.00;;;;;;;;6490823;39;8998;-56
2024/04/04 17:28:12;;;;;;;;;13.00;13.00;;;;;;;;6490839;31;8921;-59
2024/04/04 17:34:16;;;;;;;;;9.00;9.00;;;;;;;;6489818;47;8939;-57
2024/04/04 17:40:17;;;;;;;;;12.00;12.00;;;;;;;;6491619;46;8928;-57
2024/04/04 17:46:18;;;;;;;;;27.00;24.67;;;;;;;;6492137;46;8918;-59
2024/04/04 17:52:20;;;;;;;;;16.67;15.67;;;;;;;;6492644;39;8882;-57
2024/04/04 17:58:22;;;;;;;;;16.33;16.33;;;;;;;;6492635;39;8982;-58
2024/04/04 18:04:24;;;;;;;;;18.00;15.33;;;;;;;;6492557;31;8926;-57
2024/04/04 18:10:24;;;;;;;;;17.67;17.67;;;;;;;;6492144;46;8875;-58
2024/04/04 18:16:26;;;;;;;;;17.67;16.00;;;;;;;;6492640;39;8866;-58
2024/04/04 18:22:29;;;;;;;;;19.67;19.00;;;;;;;;6491828;46;8949;-55
2024/04/04 18:28:30;;;;;;;;;20.33;19.00;;;;;;;;6510178;36;9565;-56
2024/04/04 18:34:34;;;;;;;;;17.67;15.67;;;;;;;;6492193;39;8936;-57
2024/04/04 18:40:36;;;;;;;;;13.67;13.67;;;;;;;;6492412;39;8965;-58
2024/04/04 18:46:40;;;;;;;;;14.67;13.00;;;;;;;;6491690;46;8864;-57
2024/04/04 18:52:43;;;;;;;;;14.00;11.50;;;;;;;;6491155;46;8943;-59
2024/04/04 18:58:44;;;;;;;;;17.33;15.67;;;;;;;;6400849;46;5002345;-58
2024/04/04 19:04:47;;;;;;;;;14.00;12.00;;;;;;;;6491465;39;8899;-59
2024/04/04 19:10:57;;;;;;;;;15.67;12.33;;;;;;;;6492263;39;9021;-56
2024/04/04 19:17:00;;;;;;;;;10.33;10.33;;;;;;;;6491449;46;8914;-57
2024/04/04 19:23:01;;;;;;;;;16.00;12.33;;;;;;;;6492622;31;8880;-58
2024/04/04 19:29:03;;;;;;;;;16.33;12.33;;;;;;;;6491424;46;9010;-57
2024/04/04 19:35:05;;;;;;;;;16.00;16.00;;;;;;;;6492258;39;8904;-59
2024/04/04 19:41:06;;;;;;;;;12.00;11.67;;;;;;;;6491321;46;8874;-57
2024/04/04 19:47:08;;;;;;;;;11.00;9.33;;;;;;;;6508212;36;8885;-58
2024/04/04 19:53:09;;;;;;;;;12.33;10.00;;;;;;;;6491688;31;8930;-58
2024/04/04 19:59:10;;;;;;;;;15.33;13.67;;;;;;;;6491387;46;8982;-58
2024/04/04 20:05:12;;;;;;;;;11.67;11.67;;;;;;;;6490898;39;8984;-57
2024/04/04 20:11:13;;;;;;;;;13.00;12.00;;;;;;;;6490968;39;8960;-57
2024/04/04 20:17:14;;;;;;;;;10.67;10.67;;;;;;;;6491647;31;9601;-56
2024/04/04 20:23:15;;;;;;;;;17.33;13.33;;;;;;;;6490871;46;8885;-58
2024/04/04 20:29:18;;;;;;;;;16.67;13.67;;;;;;;;6491043;46;9079;-58
2024/04/04 20:35:19;;;;;;;;;14.00;12.33;;;;;;;;6491554;46;8893;-59
2024/04/04 20:41:21;;;;;;;;;18.33;17.00;;;;;;;;6491069;39;8886;-56
2024/04/04 20:47:24;;;;;;;;;13.00;10.00;;;;;;;;6491125;39;8888;-57
2024/04/04 20:53:26;;;;;;;;;14.33;14.33;;;;;;;;6491483;39;8878;-55
2024/04/04 20:59:27;;;;;;;;;15.33;14.33;;;;;;;;6490666;47;8877;-54
2024/04/04 21:05:30;;;;;;;;;15.33;14.67;;;;;;;;6490944;39;8956;-58
2024/04/04 21:11:32;;;;;;;;;17.33;17.33;;;;;;;;6490309;39;9043;-57
2024/04/04 21:17:34;;;;;;;;;18.00;16.67;;;;;;;;6493582;31;8913;-58
2024/04/04 21:23:35;;;;;;;;;15.33;15.33;;;;;;;;6492587;46;8988;-57
2024/04/04 21:29:36;;;;;;;;;19.00;17.67;;;;;;;;6492716;39;8945;-55
2024/04/04 21:35:43;;;;;;;;;18.25;16.50;;;;;;;;6492942;39;8885;-57
2024/04/04 21:41:45;;;;;;;;;18.67;16.67;;;;;;;;6492302;39;8874;-57
2024/04/04 21:47:47;;;;;;;;;22.33;19.67;;;;;;;;6561276;36;8899;-57
2024/04/04 21:53:49;;;;;;;;;20.00;18.50;;;;;;;;6492655;46;8995;-57
2024/04/04 21:59:52;;;;;;;;;20.00;18.00;;;;;;;;6492755;39;8876;-57
2024/04/04 22:05:59;;;;;;;;;18.33;16.33;;;;;;;;6492238;39;8892;-58
2024/04/04 22:12:00;;;;;;;;;15.00;14.00;;;;;;;;6492847;31;8916;-57
2024/04/04 22:18:01;;;;;;;;;16.33;16.33;;;;;;;;6492880;39;9742;-55
2024/04/04 22:24:06;;;;;;;;;17.75;17.50;;;;;;;;6492181;46;8914;-55
2024/04/04 22:30:10;;;;;;;;;18.00;15.00;;;;;;;;6492474;39;8947;-56
2024/04/04 22:36:12;;;;;;;;;17.00;16.25;;;;;;;;6491657;39;8888;-57
2024/04/04 22:42:14;;;;;;;;;14.75;13.75;;;;;;;;6492075;39;8915;-56
2024/04/04 22:48:15;;;;;;;;;15.75;14.25;;;;;;;;6491110;46;9020;-58
2024/04/04 22:54:17;;;;;;;;;18.67;16.00;;;;;;;;6492155;39;8913;-55
2024/04/04 23:00:21;;;;;;;;;21.25;18.00;;;;;;;;6491935;39;8847;-56
2024/04/04 23:06:24;;;;;;;;;17.50;15.00;;;;;;;;6491614;39;9546;-57
2024/04/04 23:12:24;;;;;;;;;21.25;21.00;;;;;;;;6491980;46;8953;-57
2024/04/04 23:18:26;;;;;;;;;20.50;20.00;;;;;;;;6492402;31;8871;-57
2024/04/04 23:24:28;;;;;;;;;16.25;16.25;;;;;;;;6491605;46;8906;-57
2024/04/04 23:30:31;;;;;;;;;19.75;19.75;;;;;;;;6491177;31;8962;-57
2024/04/04 23:36:32;;;;;;;;;19.75;18.75;;;;;;;;6491554;39;9591;-57
2024/04/04 23:42:33;;;;;;;;;19.75;18.50;;;;;;;;6491652;39;8880;-56
2024/04/04 23:48:33;;;;;;;;;18.25;18.25;;;;;;;;6491559;39;8911;-57
2024/04/04 23:54:35;;;;;;;;;21.67;20.00;;;;;;;;6491773;39;8894;-57
